createdAt,value
2022-08-17T00:01:00.483Z,2.58
2022-08-17T00:02:38.347Z,2.75
2022-08-17T00:04:19.404Z,2.97
2022-08-17T00:06:01.611Z,3.20
2022-08-17T00:07:33.763Z,2.72
2022-08-17T00:09:05.976Z,2.70
2022-08-17T00:10:39.635Z,2.17
2022-08-17T00:12:41.653Z,3.38
2022-08-17T00:14:09.391Z,2.53
2022-08-17T00:15:41.900Z,3.20
2022-08-17T00:17:14.080Z,2.40
2022-08-17T00:18:56.767Z,2.50
2022-08-17T00:20:39.490Z,2.75
2022-08-17T00:22:31.815Z,2.80
2022-08-17T00:24:04.512Z,2.72
2022-08-17T00:25:36.964Z,2.80
2022-08-17T00:27:09.157Z,2.40
2022-08-17T00:28:42.544Z,2.72
2022-08-17T00:30:14.954Z,2.33
2022-08-17T00:31:47.292Z,2.72
2022-08-17T00:33:25.689Z,2.58
2022-08-17T00:34:58.497Z,2.58
2022-08-17T00:36:30.769Z,2.50
2022-08-17T00:38:05.063Z,2.72
2022-08-17T00:39:38.764Z,2.50
2022-08-17T00:41:19.036Z,2.88
2022-08-17T00:42:51.389Z,2.40
2022-08-17T00:44:23.856Z,3.08
2022-08-17T00:46:07.317Z,2.33
2022-08-17T00:47:40.388Z,2.67
2022-08-17T00:51:05.542Z,2.42
2022-08-17T00:52:43.838Z,2.30
2022-08-17T00:54:16.307Z,3.05
2022-08-17T00:55:48.714Z,2.30
2022-08-17T00:57:30.753Z,2.75
2022-08-17T00:59:05.973Z,1.77
2022-08-17T01:00:42.309Z,3.05
2022-08-17T01:02:15.725Z,2.95
2022-08-17T01:03:49.115Z,2.88
2022-08-17T01:05:25.667Z,2.50
2022-08-17T01:06:59.114Z,3.10
2022-08-17T01:08:31.964Z,2.55
2022-08-17T01:10:06.709Z,2.38
2022-08-17T01:11:40.650Z,2.47
2022-08-17T01:13:13.745Z,2.45
2022-08-17T01:14:46.075Z,2.92
2022-08-17T01:16:22.996Z,2.00
2022-08-17T01:17:55.173Z,2.13
2022-08-17T01:19:32.559Z,2.55
2022-08-17T01:21:14.298Z,2.70
2022-08-17T01:22:46.668Z,2.92
2022-08-17T01:24:18.863Z,2.97
2022-08-17T01:25:53.541Z,2.88
2022-08-17T01:27:26.761Z,2.97
2022-08-17T01:29:00.812Z,3.17
2022-08-17T01:30:57.398Z,3.33
2022-08-17T01:32:28.012Z,2.53
2022-08-17T01:34:04.683Z,3.15
2022-08-17T01:35:38.301Z,3.38
2022-08-17T01:37:13.286Z,3.13
2022-08-17T01:38:45.964Z,2.97
2022-08-17T01:40:39.177Z,2.97
2022-08-17T01:42:22.828Z,2.67
2022-08-17T01:44:00.986Z,2.30
2022-08-17T01:45:41.174Z,3.10
2022-08-17T01:47:13.588Z,3.42
2022-08-17T01:48:47.621Z,2.97
2022-08-17T01:50:25.856Z,3.72
2022-08-17T01:51:58.406Z,3.42
2022-08-17T01:53:36.577Z,2.72
2022-08-17T01:55:09.562Z,3.40
2022-08-17T01:56:47.224Z,3.20
2022-08-17T01:58:21.024Z,2.78
2022-08-17T01:59:53.176Z,2.60
2022-08-17T02:01:28.497Z,3.17
2022-08-17T02:03:01.036Z,3.45
2022-08-17T02:04:33.961Z,2.38
2022-08-17T02:06:27.061Z,2.70
2022-08-17T02:08:00.885Z,3.63
2022-08-17T02:09:33.433Z,3.67
2022-08-17T02:11:11.504Z,3.17
2022-08-17T02:12:44.254Z,3.20
2022-08-17T02:14:16.628Z,2.70
2022-08-17T02:15:49.134Z,2.95
2022-08-17T02:17:21.359Z,3.25
2022-08-17T02:18:53.509Z,3.00
2022-08-17T02:20:42.001Z,3.50
2022-08-17T02:22:15.715Z,2.47
2022-08-17T02:23:49.589Z,3.53
2022-08-17T02:25:21.958Z,3.15
2022-08-17T02:26:56.768Z,3.03
2022-08-17T02:28:29.619Z,2.90
2022-08-17T02:30:02.615Z,3.70
2022-08-17T02:31:35.634Z,3.20
2022-08-17T02:33:09.147Z,2.90
2022-08-17T02:34:41.901Z,2.92
2022-08-17T02:36:14.226Z,2.72
2022-08-17T02:37:46.411Z,3.20
2022-08-17T02:39:24.398Z,3.17
2022-08-17T02:40:58.511Z,3.20
2022-08-17T02:42:37.183Z,4.43
2022-08-17T02:44:09.387Z,2.53
2022-08-17T02:45:41.591Z,3.33
2022-08-17T02:47:14.057Z,3.55
2022-08-17T02:48:46.360Z,3.40
2022-08-17T02:50:21.215Z,3.65
2022-08-17T02:51:53.547Z,2.92
2022-08-17T02:53:26.171Z,3.30
2022-08-17T02:54:58.395Z,3.50
2022-08-17T02:56:30.584Z,3.28
2022-08-17T02:58:03.812Z,2.67
2022-08-17T02:59:36.469Z,3.88
2022-08-17T03:01:10.394Z,2.92
2022-08-17T03:02:44.207Z,3.33
2022-08-17T03:04:16.482Z,2.95
2022-08-17T03:05:51.399Z,3.40
2022-08-17T03:07:23.591Z,3.30
2022-08-17T03:08:55.755Z,2.67
2022-08-17T03:10:28.197Z,4.18
2022-08-17T03:13:40.712Z,3.47
2022-08-17T03:15:20.494Z,3.33
2022-08-17T03:16:52.711Z,3.63
2022-08-17T03:18:26.385Z,3.55
2022-08-17T03:19:59.066Z,3.28
2022-08-17T03:21:31.252Z,2.58
2022-08-17T03:23:04.278Z,3.22
2022-08-17T03:24:39.249Z,3.83
2022-08-17T03:26:15.566Z,4.03
2022-08-17T03:27:48.468Z,3.28
2022-08-17T03:29:23.766Z,3.40
2022-08-17T03:30:56.266Z,3.88
2022-08-17T03:32:28.501Z,3.63
2022-08-17T03:34:01.212Z,3.13
2022-08-17T03:37:07.244Z,3.15
2022-08-17T03:38:39.636Z,2.97
2022-08-17T03:40:12.224Z,4.07
2022-08-17T03:43:17.844Z,4.00
2022-08-17T03:44:51.148Z,3.17
2022-08-17T03:46:42.191Z,3.83
2022-08-17T03:48:33.132Z,3.30
2022-08-17T03:50:19.483Z,3.58
2022-08-17T03:52:10.636Z,3.92
2022-08-17T03:54:10.407Z,3.20
2022-08-17T03:56:01.507Z,4.20
2022-08-17T03:57:33.718Z,3.88
2022-08-17T03:59:05.931Z,3.80
2022-08-17T04:00:39.750Z,4.13
2022-08-17T04:02:25.654Z,4.15
2022-08-17T04:03:57.811Z,4.30
2022-08-17T04:05:30.354Z,3.40
2022-08-17T04:07:07.373Z,3.42
2022-08-17T04:08:39.862Z,3.97
2022-08-17T04:10:12.192Z,3.72
2022-08-17T04:11:44.991Z,3.28
2022-08-17T04:14:58.455Z,3.10
2022-08-17T04:16:31.144Z,3.55
2022-08-17T04:18:03.436Z,3.78
2022-08-17T04:21:11.191Z,3.83
2022-08-17T04:23:17.646Z,2.58
2022-08-17T04:24:50.210Z,3.20
2022-08-17T04:26:52.761Z,3.55
2022-08-17T04:28:17.257Z,2.85
2022-08-17T04:29:55.521Z,2.72
2022-08-17T04:31:28.302Z,3.95
2022-08-17T04:33:08.709Z,4.07
2022-08-17T04:34:41.349Z,3.15
2022-08-17T04:36:15.685Z,4.18
2022-08-17T04:37:48.083Z,3.33
2022-08-17T04:39:20.279Z,3.58
2022-08-17T04:41:11.711Z,4.13
2022-08-17T04:42:43.863Z,4.55
2022-08-17T04:44:36.972Z,3.40
2022-08-17T04:46:15.842Z,3.80
2022-08-17T04:47:48.183Z,3.53
2022-08-17T04:49:20.926Z,4.78
2022-08-17T04:50:53.226Z,4.43
2022-08-17T04:52:43.295Z,3.20
2022-08-17T04:54:18.628Z,3.78
2022-08-17T04:55:55.009Z,3.95
2022-08-17T04:57:27.509Z,3.38
2022-08-17T04:59:08.855Z,4.07
2022-08-17T05:00:41.110Z,3.80
2022-08-17T05:02:14.063Z,3.38
2022-08-17T05:03:46.619Z,3.95
2022-08-17T05:05:30.327Z,4.55
2022-08-17T05:07:04.611Z,3.47
2022-08-17T05:08:36.977Z,3.70
2022-08-17T05:11:44.920Z,3.83
2022-08-17T05:13:22.397Z,3.50
2022-08-17T05:14:54.582Z,3.97
2022-08-17T05:18:00.537Z,3.60
2022-08-17T05:19:32.703Z,4.60
2022-08-17T05:21:06.803Z,4.50
2022-08-17T05:22:54.581Z,3.80
2022-08-17T05:24:42.716Z,3.53
2022-08-17T05:26:26.298Z,3.13
2022-08-17T05:27:59.872Z,4.00
2022-08-17T05:29:35.740Z,3.05
2022-08-17T05:31:08.682Z,4.07
2022-08-17T05:32:52.108Z,3.50
2022-08-17T05:34:24.672Z,3.85
2022-08-17T05:35:58.664Z,3.80
2022-08-17T05:37:31.029Z,3.70
2022-08-17T05:39:03.400Z,3.47
2022-08-17T05:40:36.854Z,3.42
2022-08-17T05:42:09.253Z,3.63
2022-08-17T05:45:16.595Z,3.45
2022-08-17T05:47:06.443Z,3.70
2022-08-17T05:48:56.009Z,3.42
2022-08-17T05:50:47.332Z,3.67
2022-08-17T05:52:38.279Z,3.40
2022-08-17T05:54:22.546Z,3.25
2022-08-17T05:56:29.371Z,3.70
2022-08-17T05:58:11.233Z,4.80
2022-08-17T06:00:07.527Z,4.22
2022-08-17T06:01:47.691Z,3.25
2022-08-17T06:03:26.152Z,3.92
2022-08-17T06:05:33.374Z,3.53
2022-08-17T06:07:17.396Z,4.47
2022-08-17T06:09:05.842Z,3.33
2022-08-17T06:10:56.796Z,4.03
2022-08-17T06:12:31.989Z,3.55
2022-08-17T06:14:27.292Z,3.15
2022-08-17T06:16:33.466Z,3.35
2022-08-17T06:18:08.081Z,2.85
2022-08-17T06:19:54.588Z,3.30
2022-08-17T06:21:33.094Z,3.38
2022-08-17T06:23:10.543Z,3.92
2022-08-17T06:25:12.502Z,3.22
2022-08-17T06:26:45.810Z,5.97
2022-08-17T06:28:31.520Z,3.70
2022-08-17T06:30:13.010Z,3.58
2022-08-17T06:31:45.292Z,3.10
2022-08-17T06:33:25.944Z,4.03
2022-08-17T06:35:00.903Z,3.65
2022-08-17T06:37:03.676Z,4.43
2022-08-17T06:40:45.615Z,5.95
2022-08-17T06:42:54.737Z,5.10
2022-08-17T06:44:42.320Z,3.80
2022-08-17T06:46:36.245Z,3.63
2022-08-17T06:48:44.650Z,5.32
2022-08-17T06:50:29.935Z,5.55
2022-08-17T06:52:46.026Z,5.22
2022-08-17T06:54:45.796Z,4.90
2022-08-17T06:56:54.124Z,5.00
2022-08-17T06:58:28.936Z,5.93
2022-08-17T07:00:16.960Z,5.47
2022-08-17T07:01:50.706Z,6.20
2022-08-17T07:03:44.268Z,5.75
2022-08-17T07:05:20.325Z,4.55
2022-08-17T07:06:58.869Z,4.28
2022-08-17T07:08:49.912Z,5.07
2022-08-17T07:10:25.375Z,5.03
2022-08-17T07:12:20.112Z,5.85
2022-08-17T07:14:04.397Z,4.28
2022-08-17T07:15:42.626Z,6.13
2022-08-17T07:17:18.394Z,5.25
2022-08-17T07:18:54.766Z,5.07
2022-08-17T07:20:27.922Z,4.75
2022-08-17T07:22:19.125Z,5.00
2022-08-17T07:24:29.530Z,5.20
2022-08-17T07:26:07.123Z,5.28
2022-08-17T07:27:45.351Z,5.95
2022-08-17T07:29:19.759Z,4.45
2022-08-17T07:30:54.463Z,4.38
2022-08-17T07:32:36.951Z,5.72
2022-08-17T07:34:14.636Z,5.07
2022-08-17T07:35:49.922Z,5.05
2022-08-17T07:37:22.296Z,4.93
2022-08-17T07:38:58.166Z,5.20
2022-08-17T07:40:35.317Z,4.72
2022-08-17T07:42:10.449Z,3.97
2022-08-17T07:43:43.007Z,4.78
2022-08-17T07:45:35.383Z,6.32
2022-08-17T07:47:35.210Z,3.97
2022-08-17T07:49:10.485Z,5.25
2022-08-17T07:50:42.706Z,4.75
2022-08-17T07:52:50.948Z,4.03
2022-08-17T07:54:30.972Z,3.83
2022-08-17T07:56:03.379Z,4.72
2022-08-17T07:57:36.458Z,4.15
2022-08-17T07:59:15.676Z,4.47
2022-08-17T08:01:05.810Z,4.63
2022-08-17T08:02:42.467Z,4.10
2022-08-17T08:04:20.064Z,4.15
2022-08-17T08:06:03.105Z,4.93
2022-08-17T08:07:42.650Z,4.65
2022-08-17T08:09:30.224Z,4.35
2022-08-17T08:11:15.550Z,3.85
2022-08-17T08:12:52.779Z,4.00
2022-08-17T08:14:29.946Z,4.65
2022-08-17T08:16:24.431Z,4.68
2022-08-17T08:18:03.064Z,5.55
2022-08-17T08:19:35.603Z,4.95
2022-08-17T08:21:13.089Z,5.05
2022-08-17T08:23:02.928Z,5.45
2022-08-17T08:25:01.626Z,5.88
2022-08-17T08:26:42.344Z,4.82
2022-08-17T08:28:34.121Z,4.10
2022-08-17T08:30:12.144Z,5.65
2022-08-17T08:31:53.515Z,4.93
2022-08-17T08:33:32.124Z,4.13
2022-08-17T08:35:23.422Z,5.18
2022-08-17T08:37:27.489Z,5.72
2022-08-17T08:39:44.368Z,5.65
2022-08-17T08:41:38.650Z,4.65
2022-08-17T08:43:36.179Z,5.07
2022-08-17T08:45:16.200Z,6.90
2022-08-17T08:46:54.249Z,5.78
2022-08-17T08:48:57.728Z,4.88
2022-08-17T08:50:42.855Z,5.22
2022-08-17T08:52:38.384Z,5.72
2022-08-17T08:54:34.965Z,6.63
2022-08-17T08:56:16.507Z,6.53
2022-08-17T08:58:08.368Z,6.18
2022-08-17T09:00:35.954Z,7.43
2022-08-17T09:02:45.519Z,6.38
2022-08-17T09:04:25.722Z,6.53
2022-08-17T09:06:28.713Z,7.18
2022-08-17T09:08:16.431Z,6.55
2022-08-17T09:09:59.402Z,6.15
2022-08-17T09:12:05.806Z,5.75
2022-08-17T09:13:57.142Z,6.32
2022-08-17T09:15:38.119Z,5.53
2022-08-17T09:17:28.996Z,6.30
2022-08-17T09:19:21.087Z,5.75
2022-08-17T09:21:33.921Z,5.40
2022-08-17T09:23:17.031Z,5.43
2022-08-17T09:24:57.291Z,6.20
2022-08-17T09:26:48.479Z,5.25
2022-08-17T09:28:28.821Z,5.63
2022-08-17T09:30:07.979Z,5.70
2022-08-17T09:32:03.701Z,5.30
2022-08-17T09:33:43.090Z,6.25
2022-08-17T09:35:32.881Z,5.38
2022-08-17T09:37:20.742Z,7.57
2022-08-17T09:39:06.367Z,6.50
2022-08-17T09:40:47.570Z,5.32
2022-08-17T09:42:31.458Z,5.30
2022-08-17T09:44:28.327Z,5.30
2022-08-17T09:46:25.090Z,6.45
2022-08-17T09:48:06.472Z,5.47
2022-08-17T09:50:11.550Z,5.05
2022-08-17T09:51:51.887Z,5.25
2022-08-17T09:54:38.959Z,4.78
2022-08-17T09:55:56.023Z,5.72
2022-08-17T09:57:55.661Z,5.32
2022-08-17T10:00:32.401Z,4.85
2022-08-17T10:02:30.520Z,5.18
2022-08-17T10:04:22.844Z,4.30
2022-08-17T10:06:08.429Z,4.25
2022-08-17T10:07:52.356Z,4.95
2022-08-17T10:09:46.486Z,4.40
2022-08-17T10:11:51.579Z,4.05
2022-08-17T10:13:53.167Z,4.22
2022-08-17T10:15:28.929Z,5.05
2022-08-17T10:17:30.671Z,4.13
2022-08-17T10:19:11.602Z,3.75
2022-08-17T10:21:29.139Z,4.05
2022-08-17T10:23:26.899Z,4.57
2022-08-17T10:25:22.679Z,4.65
2022-08-17T10:27:00.358Z,3.97
2022-08-17T10:28:41.864Z,4.53
2022-08-17T10:30:20.561Z,5.00
2022-08-17T10:32:00.788Z,3.75
2022-08-17T10:33:56.969Z,4.63
2022-08-17T10:35:44.501Z,4.25
2022-08-17T10:37:19.760Z,4.72
2022-08-17T10:39:52.369Z,4.20
2022-08-17T10:41:31.527Z,4.20
2022-08-17T10:43:23.076Z,4.00
2022-08-17T10:45:15.542Z,4.15
2022-08-17T10:47:14.493Z,3.92
2022-08-17T10:49:21.543Z,4.15
2022-08-17T10:50:57.713Z,4.03
2022-08-17T10:52:30.584Z,4.18
2022-08-17T10:54:02.877Z,3.53
2022-08-17T10:55:35.034Z,3.88
2022-08-17T10:59:01.580Z,3.95
2022-08-17T11:00:39.948Z,3.65
2022-08-17T11:02:26.108Z,4.60
2022-08-17T11:04:23.131Z,3.70
2022-08-17T11:06:01.727Z,3.45
2022-08-17T11:07:43.908Z,3.35
2022-08-17T11:09:44.209Z,4.20
2022-08-17T11:11:25.653Z,3.08
2022-08-17T11:13:14.918Z,4.43
2022-08-17T11:14:53.369Z,3.83
2022-08-17T11:16:43.122Z,4.13
2022-08-17T11:18:27.520Z,3.60
2022-08-17T11:20:13.961Z,3.40
2022-08-17T11:22:33.596Z,4.45
2022-08-17T11:24:19.723Z,3.28
2022-08-17T11:25:54.467Z,4.43
2022-08-17T11:27:33.040Z,3.83
2022-08-17T11:29:24.825Z,4.43
2022-08-17T11:31:06.425Z,3.70
2022-08-17T11:32:47.610Z,3.95
2022-08-17T11:34:26.592Z,4.35
2022-08-17T11:36:19.771Z,3.63
2022-08-17T11:38:25.408Z,3.90
2022-08-17T11:40:14.475Z,4.20
2022-08-17T11:41:57.649Z,3.70
2022-08-17T11:44:01.986Z,3.67
2022-08-17T11:46:13.041Z,3.38
2022-08-17T11:48:27.334Z,2.95
2022-08-17T11:50:40.260Z,4.18
2022-08-17T11:52:35.662Z,4.28
2022-08-17T11:54:33.345Z,3.05
2022-08-17T11:56:05.989Z,4.05
2022-08-17T11:57:41.176Z,4.10
2022-08-17T11:59:37.120Z,4.22
2022-08-17T12:01:26.890Z,3.17
2022-08-17T12:03:31.893Z,3.03
2022-08-17T12:05:04.514Z,4.45
2022-08-17T12:07:11.347Z,3.65
2022-08-17T12:09:00.488Z,3.72
2022-08-17T12:10:36.919Z,3.15
2022-08-17T12:12:18.142Z,3.45
2022-08-17T12:13:56.206Z,4.05
2022-08-17T12:15:36.161Z,3.60
2022-08-17T12:17:14.159Z,3.25
2022-08-17T12:19:02.506Z,3.67
2022-08-17T12:20:43.433Z,4.15
2022-08-17T12:22:26.940Z,3.05
2022-08-17T12:24:29.259Z,3.75
2022-08-17T12:26:16.643Z,3.67
2022-08-17T12:28:04.804Z,3.88
2022-08-17T12:29:43.955Z,3.67
2022-08-17T12:31:23.225Z,4.15
2022-08-17T12:32:55.854Z,3.78
2022-08-17T12:34:40.851Z,3.70
2022-08-17T12:36:17.306Z,4.05
2022-08-17T12:37:50.631Z,2.90
2022-08-17T12:39:26.561Z,3.15
2022-08-17T12:40:59.663Z,4.05
2022-08-17T12:42:37.856Z,3.55
2022-08-17T12:44:17.187Z,3.10
2022-08-17T12:46:01.165Z,3.22
2022-08-17T12:47:47.372Z,3.97
2022-08-17T12:49:26.472Z,2.97
2022-08-17T12:51:02.599Z,4.03
2022-08-17T12:52:39.763Z,3.97
2022-08-17T12:54:29.483Z,3.45
2022-08-17T12:56:07.509Z,3.40
2022-08-17T12:57:43.810Z,3.63
2022-08-17T12:59:29.919Z,4.07
2022-08-17T13:01:09.227Z,3.75
2022-08-17T13:03:05.917Z,3.55
2022-08-17T13:04:40.140Z,3.40
2022-08-17T13:06:25.348Z,3.33
2022-08-17T13:07:59.864Z,3.95
2022-08-17T13:09:35.389Z,3.05
2022-08-17T13:11:16.498Z,3.88
2022-08-17T13:12:52.481Z,3.72
2022-08-17T13:14:28.842Z,3.65
2022-08-17T13:16:17.050Z,3.80
2022-08-17T13:18:09.002Z,3.33
2022-08-17T13:19:49.575Z,4.32
2022-08-17T13:21:30.686Z,3.47
2022-08-17T13:23:12.054Z,3.90
2022-08-17T13:24:54.220Z,3.17
2022-08-17T13:26:34.510Z,3.53
2022-08-17T13:28:18.448Z,3.83
2022-08-17T13:30:11.766Z,3.70
2022-08-17T13:31:52.840Z,3.65
2022-08-17T13:33:43.376Z,3.45
2022-08-17T13:35:40.582Z,4.90
2022-08-17T13:37:32.472Z,3.83
2022-08-17T13:39:28.462Z,3.70
2022-08-17T13:41:00.934Z,3.20
2022-08-17T13:42:52.357Z,3.35
2022-08-17T13:46:28.860Z,3.45
2022-08-17T13:48:23.352Z,3.80
2022-08-17T13:49:56.625Z,3.47
2022-08-17T13:51:33.430Z,2.90
2022-08-17T13:53:24.130Z,3.22
2022-08-17T13:54:59.369Z,4.03
2022-08-17T13:56:46.342Z,4.00
2022-08-17T13:58:25.621Z,3.95
2022-08-17T14:00:30.033Z,3.58
2022-08-17T14:02:02.796Z,3.13
2022-08-17T14:03:35.080Z,4.25
2022-08-17T14:05:07.801Z,3.42
2022-08-17T14:06:58.691Z,4.00
2022-08-17T14:08:31.056Z,3.35
2022-08-17T14:10:11.942Z,3.00
2022-08-17T14:11:45.779Z,3.85
2022-08-17T14:13:18.648Z,2.97
2022-08-17T14:14:52.229Z,3.20
2022-08-17T14:16:24.472Z,2.88
2022-08-17T14:17:56.987Z,3.92
2022-08-17T14:19:29.353Z,3.92
2022-08-17T14:21:01.675Z,3.08
2022-08-17T14:24:10.635Z,3.72
2022-08-17T14:25:42.833Z,3.38
2022-08-17T14:28:54.617Z,3.50
2022-08-17T14:30:29.964Z,3.25
2022-08-17T14:32:11.722Z,3.03
2022-08-17T14:33:43.988Z,3.27
2022-08-17T14:36:48.911Z,3.13
2022-08-17T14:38:21.212Z,4.25
2022-08-17T14:39:55.894Z,3.30
2022-08-17T14:41:29.086Z,3.80
2022-08-17T14:43:01.699Z,3.67
2022-08-17T14:44:33.944Z,2.97
2022-08-17T14:46:06.461Z,3.35
2022-08-17T14:47:40.550Z,3.03
2022-08-17T14:49:15.673Z,2.83
2022-08-17T14:50:47.956Z,3.80
2022-08-17T14:53:57.304Z,3.65
2022-08-17T14:55:31.061Z,3.47
2022-08-17T14:57:33.742Z,2.75
2022-08-17T14:58:56.062Z,3.47
2022-08-17T15:00:28.677Z,3.20
2022-08-17T15:02:02.780Z,2.92
2022-08-17T15:03:35.046Z,3.60
2022-08-17T15:05:07.783Z,3.05
2022-08-17T15:06:39.961Z,3.53
2022-08-17T15:08:13.030Z,3.63
2022-08-17T15:09:45.658Z,2.88
2022-08-17T15:11:18.288Z,3.63
2022-08-17T15:12:50.544Z,3.00
2022-08-17T15:14:23.202Z,3.45
2022-08-17T15:15:55.512Z,3.30
2022-08-17T15:19:20.058Z,3.70
2022-08-17T15:20:52.975Z,3.08
2022-08-17T15:22:27.342Z,3.15
2022-08-17T15:24:03.110Z,2.85
2022-08-17T15:25:35.396Z,2.88
2022-08-17T15:27:07.954Z,3.35
2022-08-17T15:28:40.280Z,3.75
2022-08-17T15:31:45.289Z,3.10
2022-08-17T15:33:21.905Z,3.42
2022-08-17T15:34:57.028Z,3.40
2022-08-17T15:36:29.364Z,3.50
2022-08-17T15:38:11.750Z,3.20
2022-08-17T15:39:44.813Z,3.42
2022-08-17T15:42:51.250Z,2.80
2022-08-17T15:44:23.422Z,3.08
2022-08-17T15:46:10.869Z,3.38
2022-08-17T15:47:43.350Z,2.60
2022-08-17T15:49:15.784Z,3.50
2022-08-17T15:52:24.011Z,3.50
2022-08-17T15:53:59.243Z,3.30
2022-08-17T15:55:38.379Z,3.58
2022-08-17T15:57:10.566Z,2.83
2022-08-17T15:58:46.768Z,2.88
2022-08-17T16:00:20.162Z,3.25
2022-08-17T16:03:15.177Z,3.05
2022-08-17T16:04:04.860Z,3.30
2022-08-17T16:05:40.761Z,2.95
2022-08-17T16:07:14.601Z,3.22
2022-08-17T16:08:47.559Z,3.17
2022-08-17T16:10:19.908Z,2.83
2022-08-17T16:11:55.380Z,4.30
2022-08-17T16:13:28.442Z,3.10
2022-08-17T16:15:01.876Z,4.22
2022-08-17T16:16:34.110Z,2.88
2022-08-17T16:19:39.610Z,3.23
2022-08-17T16:21:26.800Z,4.05
2022-08-17T16:22:59.032Z,3.33
2022-08-17T16:24:32.062Z,3.47
2022-08-17T16:26:04.367Z,3.10
2022-08-17T16:27:36.977Z,3.42
2022-08-17T16:29:09.660Z,3.20
2022-08-17T16:30:41.932Z,4.05
2022-08-17T16:34:15.548Z,3.13
2022-08-17T16:35:42.172Z,3.78
2022-08-17T16:37:14.554Z,3.15
2022-08-17T16:40:19.474Z,3.38
2022-08-17T16:43:23.910Z,3.60
2022-08-17T16:46:33.583Z,4.00
2022-08-17T16:48:07.498Z,3.88
2022-08-17T16:49:39.911Z,4.40
2022-08-17T16:52:48.511Z,3.47
2022-08-17T16:54:21.694Z,3.67
2022-08-17T16:55:54.247Z,3.50
2022-08-17T16:57:27.309Z,3.40
2022-08-17T16:59:00.051Z,3.78
2022-08-17T17:00:47.749Z,3.38
2022-08-17T17:02:36.510Z,3.67
2022-08-17T17:04:14.748Z,3.20
2022-08-17T17:05:56.226Z,3.80
2022-08-17T17:07:40.245Z,4.25
2022-08-17T17:09:20.003Z,3.53
2022-08-17T17:10:57.214Z,3.63
2022-08-17T17:12:59.534Z,4.00
2022-08-17T17:14:30.764Z,3.92
2022-08-17T17:16:17.285Z,4.05
2022-08-17T17:17:52.393Z,3.60
2022-08-17T17:19:38.609Z,3.63
2022-08-17T17:21:16.801Z,3.90
2022-08-17T17:22:52.236Z,3.83
2022-08-17T17:25:02.337Z,3.78
2022-08-17T17:26:52.107Z,3.60
2022-08-17T17:28:43.483Z,3.85
2022-08-17T17:30:27.515Z,3.63
2022-08-17T17:32:13.967Z,3.53
2022-08-17T17:34:00.459Z,3.30
2022-08-17T17:35:48.045Z,3.40
2022-08-17T17:37:26.246Z,3.35
2022-08-17T17:39:15.508Z,3.40
2022-08-17T17:40:51.431Z,3.92
2022-08-17T17:42:31.373Z,3.30
2022-08-17T17:44:12.319Z,3.03
2022-08-17T17:46:26.472Z,3.47
2022-08-17T17:47:53.555Z,4.18
2022-08-17T17:49:30.686Z,3.90
2022-08-17T17:51:45.573Z,3.58
2022-08-17T17:53:34.795Z,3.50
2022-08-17T17:55:15.536Z,3.78
2022-08-17T17:57:01.865Z,3.45
2022-08-17T17:59:03.831Z,4.03
2022-08-17T18:00:58.151Z,3.50
2022-08-17T18:02:54.983Z,3.50
2022-08-17T18:04:36.670Z,3.28
2022-08-17T18:06:18.656Z,4.47
2022-08-17T18:08:10.719Z,4.07
2022-08-17T18:10:01.175Z,4.05
2022-08-17T18:12:00.207Z,3.50
2022-08-17T18:13:43.191Z,3.35
2022-08-17T18:15:51.521Z,3.63
2022-08-17T18:17:23.839Z,4.78
2022-08-17T18:18:57.767Z,3.63
2022-08-17T18:20:36.010Z,3.17
2022-08-17T18:22:20.841Z,3.95
2022-08-17T18:23:57.369Z,3.72
2022-08-17T18:25:45.205Z,3.22
2022-08-17T18:27:35.222Z,4.40
2022-08-17T18:29:34.647Z,4.05
2022-08-17T18:31:12.117Z,3.75
2022-08-17T18:32:46.638Z,4.00
2022-08-17T18:34:43.767Z,4.00
2022-08-17T18:36:29.179Z,3.75
2022-08-17T18:38:22.317Z,3.50
2022-08-17T18:39:54.662Z,3.95
2022-08-17T18:41:30.437Z,4.32
2022-08-17T18:43:05.799Z,3.70
2022-08-17T18:44:38.176Z,4.40
2022-08-17T18:46:40.154Z,4.10
2022-08-17T18:48:33.159Z,4.32
2022-08-17T18:50:21.003Z,4.95
2022-08-17T18:52:16.485Z,4.22
2022-08-17T18:54:07.980Z,3.35
2022-08-17T18:55:40.205Z,4.53
2022-08-17T18:57:16.364Z,5.60
2022-08-17T18:59:01.451Z,4.13
2022-08-17T19:00:40.904Z,3.47
2022-08-17T19:02:20.584Z,3.60
2022-08-17T19:03:54.887Z,3.83
2022-08-17T19:05:38.804Z,4.50
2022-08-17T19:07:16.818Z,5.32
2022-08-17T19:08:49.086Z,3.28
2022-08-17T19:12:06.151Z,3.60
2022-08-17T19:13:45.317Z,4.15
2022-08-17T19:15:24.851Z,4.03
2022-08-17T19:17:14.125Z,3.72
2022-08-17T19:18:52.903Z,4.47
2022-08-17T19:20:54.525Z,4.10
2022-08-17T19:22:44.335Z,3.85
2022-08-17T19:24:21.163Z,3.83
2022-08-17T19:25:58.456Z,4.45
2022-08-17T19:27:46.246Z,4.25
2022-08-17T19:29:31.912Z,4.15
2022-08-17T19:31:18.872Z,4.45
2022-08-17T19:32:52.558Z,4.20
2022-08-17T19:34:34.133Z,4.00
2022-08-17T19:36:11.365Z,5.05
2022-08-17T19:38:00.601Z,3.85
2022-08-17T19:40:02.848Z,3.42
2022-08-17T19:41:45.660Z,4.37
2022-08-17T19:43:23.486Z,4.60
2022-08-17T19:45:13.006Z,3.88
2022-08-17T19:47:08.198Z,4.13
2022-08-17T19:48:56.734Z,4.93
2022-08-17T19:50:54.185Z,3.80
2022-08-17T19:53:12.000Z,3.83
2022-08-17T19:54:52.395Z,4.50
2022-08-17T19:56:33.109Z,4.55
2022-08-17T19:58:37.253Z,5.10
2022-08-17T20:00:14.200Z,4.88
2022-08-17T20:02:28.878Z,4.10
2022-08-17T20:04:32.528Z,4.28
2022-08-17T20:06:14.795Z,3.88
2022-08-17T20:08:06.226Z,3.83
2022-08-17T20:09:44.391Z,4.32
2022-08-17T20:11:29.861Z,3.72
2022-08-17T20:13:07.754Z,4.07
2022-08-17T20:14:53.703Z,4.40
2022-08-17T20:16:28.211Z,4.25
2022-08-17T20:18:05.587Z,4.22
2022-08-17T20:19:58.294Z,3.75
2022-08-17T20:21:39.993Z,4.25
2022-08-17T20:23:31.186Z,3.78
2022-08-17T20:25:10.850Z,3.97
2022-08-17T20:27:14.450Z,4.47
2022-08-17T20:30:42.013Z,4.43
2022-08-17T20:32:22.841Z,3.53
2022-08-17T20:33:55.438Z,3.28
2022-08-17T20:37:13.287Z,3.58
2022-08-17T20:38:55.102Z,3.60
2022-08-17T20:40:31.754Z,3.30
2022-08-17T20:42:12.562Z,3.58
2022-08-17T20:44:10.881Z,3.78
2022-08-17T20:46:03.130Z,3.97
2022-08-17T20:48:00.946Z,3.23
2022-08-17T20:49:47.199Z,4.18
2022-08-17T20:51:26.009Z,3.95
2022-08-17T20:53:02.393Z,3.40
2022-08-17T20:54:53.780Z,3.45
2022-08-17T20:56:44.252Z,4.25
2022-08-17T20:58:17.281Z,3.85
2022-08-17T20:59:50.127Z,4.20
2022-08-17T21:01:39.727Z,3.20
2022-08-17T21:03:22.704Z,3.58
2022-08-17T21:05:02.251Z,4.00
2022-08-17T21:07:18.294Z,4.50
2022-08-17T21:08:54.557Z,3.60
2022-08-17T21:10:26.981Z,3.30
2022-08-17T21:12:05.005Z,4.47
2022-08-17T21:13:46.302Z,3.63
2022-08-17T21:15:39.535Z,4.38
2022-08-17T21:17:35.368Z,4.15
2022-08-17T21:19:16.996Z,3.00
2022-08-17T21:21:01.587Z,3.40
2022-08-17T21:23:16.351Z,4.25
2022-08-17T21:24:56.930Z,3.33
2022-08-17T21:26:39.010Z,3.85
2022-08-17T21:29:00.311Z,4.00
2022-08-17T21:30:33.847Z,3.80
2022-08-17T21:32:06.960Z,4.05
2022-08-17T21:34:16.825Z,4.38
2022-08-17T21:35:52.153Z,4.43
2022-08-17T21:37:29.634Z,4.30
2022-08-17T21:39:08.840Z,4.55
2022-08-17T21:40:45.859Z,3.65
2022-08-17T21:42:34.559Z,3.63
2022-08-17T21:44:31.416Z,3.95
2022-08-17T21:46:31.851Z,3.97
2022-08-17T21:48:20.223Z,4.55
2022-08-17T21:49:54.538Z,4.10
2022-08-17T21:51:28.927Z,4.38
2022-08-17T21:53:03.335Z,4.10
2022-08-17T21:54:40.063Z,3.78
2022-08-17T21:56:29.341Z,3.33
2022-08-17T21:58:14.709Z,3.67
2022-08-17T21:59:53.718Z,3.75
2022-08-17T22:01:30.246Z,3.88
2022-08-17T22:03:06.915Z,4.28
2022-08-17T22:04:41.593Z,4.05
2022-08-17T22:06:35.049Z,4.28
2022-08-17T22:08:20.426Z,5.10
2022-08-17T22:09:52.597Z,4.65
2022-08-17T22:11:24.886Z,4.18
2022-08-17T22:13:16.870Z,3.97
2022-08-17T22:14:57.837Z,3.95
2022-08-17T22:16:30.076Z,4.43
2022-08-17T22:18:05.700Z,4.10
2022-08-17T22:19:38.504Z,4.32
2022-08-17T22:21:11.108Z,4.35
2022-08-17T22:23:04.715Z,4.05
2022-08-17T22:24:38.175Z,5.43
2022-08-17T22:26:13.700Z,5.05
2022-08-17T22:27:56.736Z,5.13
2022-08-17T22:29:57.588Z,4.80
2022-08-17T22:31:58.049Z,5.32
2022-08-17T22:33:33.410Z,5.30
2022-08-17T22:35:29.006Z,4.63
2022-08-17T22:37:27.482Z,4.75
2022-08-17T22:39:09.230Z,4.82
2022-08-17T22:40:41.849Z,5.40
2022-08-17T22:42:15.438Z,5.15
2022-08-17T22:43:48.317Z,4.85
2022-08-17T22:45:20.668Z,5.55
2022-08-17T22:46:52.857Z,5.43
2022-08-17T22:48:27.943Z,4.57
2022-08-17T22:50:11.910Z,5.78
2022-08-17T22:51:44.284Z,6.43
2022-08-17T22:53:42.415Z,5.57
2022-08-17T22:55:36.408Z,7.03
2022-08-17T22:57:32.634Z,5.85
2022-08-17T22:59:20.644Z,5.65
2022-08-17T23:00:53.255Z,6.38
2022-08-17T23:02:29.212Z,6.63
2022-08-17T23:04:05.774Z,6.53
2022-08-17T23:05:42.060Z,5.88
2022-08-17T23:07:15.282Z,5.53
2022-08-17T23:08:54.522Z,6.50
2022-08-17T23:10:31.132Z,6.05
2022-08-17T23:12:11.654Z,7.05
2022-08-17T23:13:44.527Z,6.78
2022-08-17T23:16:50.984Z,6.75
2022-08-17T23:18:23.482Z,7.22
2022-08-17T23:19:57.171Z,7.28
2022-08-17T23:21:29.871Z,7.00
2022-08-17T23:23:04.505Z,6.60
2022-08-17T23:24:44.127Z,7.47
2022-08-17T23:26:21.164Z,7.07